createdAt,value
2017-12-13T00:01:10.944Z,31.53
2017-12-13T00:03:39.272Z,31.47
2017-12-13T00:06:07.593Z,34.10
2017-12-13T00:08:35.947Z,31.67
2017-12-13T00:11:04.302Z,30.47
2017-12-13T00:13:32.649Z,33.53
2017-12-13T00:16:01.008Z,25.40
2017-12-13T00:18:29.338Z,31.23
2017-12-13T00:20:58.451Z,27.90
2017-12-13T00:23:27.602Z,27.13
2017-12-13T00:25:55.920Z,29.00
2017-12-13T00:28:24.244Z,31.37
2017-12-13T00:30:52.619Z,25.47
2017-12-13T00:33:20.952Z,28.00
2017-12-13T00:35:49.271Z,23.53
2017-12-13T00:38:17.636Z,29.20
2017-12-13T00:40:45.959Z,24.43
2017-12-13T00:43:14.290Z,25.77
2017-12-13T00:45:42.635Z,21.70
2017-12-13T00:48:11.002Z,20.97
2017-12-13T00:50:39.361Z,26.10
2017-12-13T00:53:07.697Z,21.07
2017-12-13T00:55:36.033Z,17.67
2017-12-13T00:58:04.409Z,19.73
2017-12-13T01:00:33.498Z,20.23
2017-12-13T01:03:01.858Z,17.23
2017-12-13T01:05:30.212Z,12.77
2017-12-13T01:07:58.548Z,16.20
2017-12-13T01:10:26.869Z,17.60
2017-12-13T01:12:55.307Z,15.70
2017-12-13T01:15:23.633Z,20.17
2017-12-13T01:17:51.961Z,11.63
2017-12-13T01:20:20.321Z,11.80
2017-12-13T01:22:48.671Z,11.70
2017-12-13T01:25:17.035Z,16.83
2017-12-13T01:27:46.144Z,11.50
2017-12-13T01:30:14.479Z,14.50
2017-12-13T01:32:42.799Z,16.27
2017-12-13T01:35:11.140Z,20.80
2017-12-13T01:37:39.465Z,15.40
2017-12-13T01:40:07.779Z,16.23
2017-12-13T01:42:36.116Z,11.40
2017-12-13T01:45:04.438Z,10.87
2017-12-13T01:47:32.791Z,17.10
2017-12-13T01:50:01.161Z,15.13
2017-12-13T01:52:29.488Z,11.73
2017-12-13T01:54:57.815Z,15.03
2017-12-13T01:57:26.260Z,14.63
2017-12-13T01:59:55.362Z,11.90
2017-12-13T02:02:24.444Z,13.97
2017-12-13T02:04:53.551Z,13.37
2017-12-13T02:07:22.639Z,16.03
2017-12-13T02:09:51.771Z,16.57
2017-12-13T02:12:20.099Z,20.90
2017-12-13T02:14:48.483Z,17.43
2017-12-13T02:17:16.800Z,17.13
2017-12-13T02:19:45.132Z,14.00
2017-12-13T02:22:13.457Z,13.73
2017-12-13T02:24:41.828Z,18.47
2017-12-13T02:27:10.178Z,15.73
2017-12-13T02:29:39.278Z,15.63
2017-12-13T02:32:08.395Z,19.73
2017-12-13T02:34:36.713Z,15.40
2017-12-13T02:37:05.039Z,19.70
2017-12-13T02:39:33.427Z,14.67
2017-12-13T02:42:01.757Z,13.97
2017-12-13T02:44:30.170Z,14.00
2017-12-13T02:46:58.621Z,17.03
2017-12-13T02:49:26.945Z,18.13
2017-12-13T02:51:56.096Z,14.87
2017-12-13T02:54:24.468Z,23.50
2017-12-13T02:56:52.793Z,16.30
2017-12-13T02:59:21.111Z,17.37
2017-12-13T03:01:49.447Z,18.73
2017-12-13T03:04:17.772Z,17.83
2017-12-13T03:06:46.111Z,17.87
2017-12-13T03:09:14.446Z,18.23
2017-12-13T03:11:43.023Z,19.27
2017-12-13T03:14:11.380Z,18.90
2017-12-13T03:16:39.704Z,17.47
2017-12-13T03:19:08.042Z,17.80
2017-12-13T03:21:36.412Z,20.07
2017-12-13T03:24:04.757Z,18.73
2017-12-13T03:26:33.072Z,20.07
2017-12-13T03:29:01.412Z,21.60
2017-12-13T03:31:29.773Z,18.47
2017-12-13T03:33:58.874Z,18.73
2017-12-13T03:36:27.976Z,24.00
2017-12-13T03:38:56.304Z,20.27
2017-12-13T03:41:24.628Z,20.73
2017-12-13T03:43:53.843Z,19.10
2017-12-13T03:46:22.159Z,20.07
2017-12-13T03:48:50.483Z,20.57
2017-12-13T03:51:18.876Z,21.60
2017-12-13T03:53:47.201Z,17.30
2017-12-13T03:56:15.905Z,23.13
2017-12-13T03:58:45.088Z,19.63
2017-12-13T04:01:13.427Z,22.50
2017-12-13T04:03:41.752Z,18.63
2017-12-13T04:06:10.883Z,19.67
2017-12-13T04:08:39.211Z,17.80
2017-12-13T04:11:07.544Z,22.53
2017-12-13T04:13:35.911Z,20.40
2017-12-13T04:16:04.243Z,15.27
2017-12-13T04:18:32.588Z,18.90
2017-12-13T04:21:00.913Z,15.20
2017-12-13T04:23:29.242Z,17.00
2017-12-13T04:25:57.601Z,16.60
2017-12-13T04:28:25.930Z,20.00
2017-12-13T04:30:54.273Z,15.97
2017-12-13T04:33:22.629Z,13.30
2017-12-13T04:35:51.716Z,17.10
2017-12-13T04:38:20.820Z,19.53
2017-12-13T04:40:49.199Z,14.40
2017-12-13T04:43:17.536Z,14.57
2017-12-13T04:45:46.148Z,15.53
2017-12-13T04:48:15.271Z,17.13
2017-12-13T04:50:43.604Z,15.43
2017-12-13T04:53:11.947Z,11.97
2017-12-13T04:55:40.268Z,12.53
2017-12-13T04:58:09.368Z,13.30
2017-12-13T05:00:38.489Z,13.67
2017-12-13T05:03:06.815Z,15.00
2017-12-13T05:05:35.140Z,9.53
2017-12-13T05:08:03.480Z,9.97
2017-12-13T05:10:31.796Z,11.97
2017-12-13T05:13:00.128Z,14.83
2017-12-13T05:15:28.496Z,12.70
2017-12-13T05:17:56.884Z,14.03
2017-12-13T05:20:25.240Z,11.97
2017-12-13T05:22:53.595Z,12.10
2017-12-13T05:25:21.925Z,14.77
2017-12-13T05:27:50.247Z,11.20
2017-12-13T05:30:18.595Z,13.77
2017-12-13T05:32:47.698Z,13.43
2017-12-13T05:35:16.792Z,13.70
2017-12-13T05:37:45.897Z,13.00
2017-12-13T05:40:14.981Z,14.90
2017-12-13T05:42:44.106Z,12.23
2017-12-13T05:45:12.432Z,10.47
2017-12-13T05:47:40.794Z,16.10
2017-12-13T05:50:09.144Z,9.47
2017-12-13T05:52:37.469Z,10.80
2017-12-13T05:55:05.801Z,13.50
2017-12-13T05:57:34.344Z,12.10
2017-12-13T06:00:02.673Z,11.20
2017-12-13T06:02:30.994Z,16.93
2017-12-13T06:04:59.352Z,17.80
2017-12-13T06:07:27.687Z,16.27
2017-12-13T06:09:56.039Z,14.87
2017-12-13T06:12:25.163Z,12.47
2017-12-13T06:14:53.488Z,11.27
2017-12-13T06:17:21.820Z,15.07
2017-12-13T06:19:50.159Z,16.47
2017-12-13T06:22:18.499Z,14.20
2017-12-13T06:24:46.821Z,14.73
2017-12-13T06:27:15.170Z,23.07
2017-12-13T06:29:43.517Z,15.00
2017-12-13T06:32:11.844Z,12.33
2017-12-13T06:34:40.179Z,12.93
2017-12-13T06:37:08.492Z,11.40
2017-12-13T06:39:36.831Z,13.27
2017-12-13T06:42:05.164Z,12.00
2017-12-13T06:44:33.498Z,12.20
2017-12-13T06:47:01.846Z,11.10
2017-12-13T06:49:30.178Z,10.20
2017-12-13T06:51:58.504Z,13.17
2017-12-13T06:54:26.820Z,14.10
2017-12-13T06:56:55.171Z,11.10
2017-12-13T06:59:23.498Z,12.77
2017-12-13T07:01:51.820Z,9.93
2017-12-13T07:04:20.181Z,11.23
2017-12-13T07:06:49.287Z,15.90
2017-12-13T07:09:17.624Z,15.63
2017-12-13T07:11:45.983Z,20.33
2017-12-13T07:14:14.296Z,14.07
2017-12-13T07:16:43.392Z,14.07
2017-12-13T07:19:12.519Z,14.03
2017-12-13T07:21:40.840Z,13.80
2017-12-13T07:24:09.168Z,12.30
2017-12-13T07:26:37.506Z,13.40
2017-12-13T07:29:05.832Z,10.87
2017-12-13T07:31:34.160Z,14.10
2017-12-13T07:34:02.499Z,11.87
2017-12-13T07:36:30.833Z,13.33
2017-12-13T07:38:59.927Z,12.57
2017-12-13T07:41:29.039Z,12.50
2017-12-13T07:43:57.367Z,10.60
2017-12-13T07:46:25.744Z,11.70
2017-12-13T07:48:54.105Z,16.07
2017-12-13T07:51:22.424Z,15.67
2017-12-13T07:53:50.770Z,10.87
2017-12-13T07:56:19.720Z,10.60
2017-12-13T07:58:48.811Z,17.40
2017-12-13T08:01:17.892Z,13.87
2017-12-13T08:03:47.004Z,17.60
2017-12-13T08:06:16.104Z,17.73
2017-12-13T08:08:45.191Z,15.33
2017-12-13T08:11:14.305Z,13.47
2017-12-13T08:13:42.623Z,12.10
2017-12-13T08:16:11.724Z,10.03
2017-12-13T08:18:40.844Z,10.00
2017-12-13T08:21:09.943Z,9.83
2017-12-13T08:23:39.044Z,13.77
2017-12-13T08:26:07.375Z,8.80
2017-12-13T08:28:35.705Z,8.20
2017-12-13T08:31:04.811Z,9.50
2017-12-13T08:33:33.143Z,13.27
2017-12-13T08:36:01.484Z,9.63
2017-12-13T08:38:29.806Z,9.00
2017-12-13T08:40:58.119Z,7.83
2017-12-13T08:43:27.224Z,10.90
2017-12-13T08:45:55.540Z,8.90
2017-12-13T08:48:23.851Z,9.20
2017-12-13T08:50:52.986Z,10.87
2017-12-13T08:53:21.308Z,9.50
2017-12-13T08:55:49.635Z,9.57
2017-12-13T08:58:17.964Z,9.07
2017-12-13T09:00:46.281Z,9.70
2017-12-13T09:03:14.622Z,9.10
2017-12-13T09:05:42.942Z,9.03
2017-12-13T09:08:11.259Z,9.20
2017-12-13T09:10:39.598Z,9.90
2017-12-13T09:13:07.939Z,13.80
2017-12-13T09:15:37.048Z,10.90
2017-12-13T09:18:06.179Z,10.37
2017-12-13T09:20:34.495Z,8.90
2017-12-13T09:23:02.807Z,8.27
2017-12-13T09:25:31.917Z,13.50
2017-12-13T09:28:00.231Z,8.27
2017-12-13T09:30:28.579Z,11.30
2017-12-13T09:32:56.910Z,7.53
2017-12-13T09:35:25.229Z,7.33
2017-12-13T09:37:53.576Z,8.00
2017-12-13T09:40:22.664Z,10.07
2017-12-13T09:42:50.979Z,8.33
2017-12-13T09:45:19.336Z,10.30
2017-12-13T09:47:48.428Z,10.10
2017-12-13T09:50:17.510Z,14.13
2017-12-13T09:52:45.845Z,7.93
2017-12-13T09:55:14.163Z,7.37
2017-12-13T09:57:43.260Z,7.90
2017-12-13T10:00:11.596Z,7.10
2017-12-13T10:02:39.911Z,9.07
2017-12-13T10:05:08.228Z,6.30
2017-12-13T10:07:36.588Z,9.30
2017-12-13T10:10:05.668Z,6.07
2017-12-13T10:12:33.980Z,6.47
2017-12-13T10:15:02.393Z,5.90
2017-12-13T10:17:31.746Z,6.73
2017-12-13T10:20:00.085Z,5.97
2017-12-13T10:22:28.438Z,9.43
2017-12-13T10:24:56.750Z,6.20
2017-12-13T10:27:25.293Z,6.63
2017-12-13T10:29:53.653Z,5.97
2017-12-13T10:32:21.977Z,5.33
2017-12-13T10:34:50.295Z,5.90
2017-12-13T10:37:19.415Z,6.13
2017-12-13T10:39:47.731Z,8.40
2017-12-13T10:42:16.044Z,6.77
2017-12-13T10:44:45.923Z,5.80
2017-12-13T10:47:14.261Z,10.00
2017-12-13T10:49:42.576Z,5.03
2017-12-13T10:52:10.931Z,6.10
2017-12-13T10:54:39.290Z,7.20
2017-12-13T10:57:08.340Z,7.73
2017-12-13T10:59:36.683Z,5.17
2017-12-13T11:02:05.000Z,5.13
2017-12-13T11:04:33.323Z,5.93
2017-12-13T11:07:01.671Z,5.30
2017-12-13T11:09:30.761Z,9.90
2017-12-13T11:11:59.845Z,6.20
2017-12-13T11:14:28.177Z,5.73
2017-12-13T11:16:56.484Z,5.10
2017-12-13T11:19:24.792Z,5.90
2017-12-13T11:21:53.888Z,5.73
2017-12-13T11:24:22.963Z,9.17
2017-12-13T11:26:51.285Z,5.57
2017-12-13T11:29:19.615Z,5.37
2017-12-13T11:31:47.951Z,33.60
2017-12-13T11:34:16.259Z,4.63
2017-12-13T11:36:44.607Z,4.93
2017-12-13T11:39:12.938Z,10.30
2017-12-13T11:41:42.021Z,7.27
2017-12-13T11:44:10.370Z,4.63
2017-12-13T11:46:38.727Z,4.80
2017-12-13T11:49:07.035Z,6.13
2017-12-13T11:51:35.381Z,8.90
2017-12-13T11:54:05.638Z,5.17
2017-12-13T11:56:33.955Z,5.33
2017-12-13T11:59:02.289Z,7.50
2017-12-13T12:01:30.631Z,10.40
2017-12-13T12:03:58.950Z,5.90
2017-12-13T12:06:27.385Z,6.17
2017-12-13T12:08:55.695Z,4.60
2017-12-13T12:11:24.780Z,4.70
2017-12-13T12:13:53.115Z,6.03
2017-12-13T12:16:22.206Z,7.33
2017-12-13T12:18:51.293Z,10.03
2017-12-13T12:21:19.640Z,6.23
2017-12-13T12:23:47.952Z,8.50
2017-12-13T12:26:17.042Z,4.40
2017-12-13T12:28:45.395Z,10.67
2017-12-13T12:31:13.703Z,5.10
2017-12-13T12:33:42.008Z,8.17
2017-12-13T12:36:10.352Z,5.30
2017-12-13T12:38:38.681Z,7.77
2017-12-13T12:41:06.998Z,4.27
2017-12-13T12:43:35.357Z,7.23
2017-12-13T12:46:03.689Z,5.70
2017-12-13T12:48:32.019Z,4.40
2017-12-13T12:51:01.650Z,4.23
2017-12-13T12:53:30.002Z,3.03
2017-12-13T12:55:58.344Z,4.30
2017-12-13T12:58:26.662Z,6.37
2017-12-13T13:00:56.610Z,5.23
2017-12-13T13:03:25.732Z,4.83
2017-12-13T13:05:54.045Z,3.63
2017-12-13T13:08:22.388Z,3.90
2017-12-13T13:10:50.757Z,4.00
2017-12-13T13:13:19.079Z,8.60
2017-12-13T13:15:47.409Z,4.03
2017-12-13T13:18:15.768Z,10.57
2017-12-13T13:20:44.852Z,9.73
2017-12-13T13:23:13.168Z,3.83
2017-12-13T13:25:41.509Z,6.90
2017-12-13T13:28:09.863Z,5.17
2017-12-13T13:30:38.172Z,5.03
2017-12-13T13:33:06.525Z,6.83
2017-12-13T13:35:34.841Z,3.57
2017-12-13T13:38:03.938Z,3.00
2017-12-13T13:40:32.283Z,3.40
2017-12-13T13:43:00.593Z,5.30
2017-12-13T13:45:29.688Z,4.67
2017-12-13T13:47:58.034Z,14.97
2017-12-13T13:50:26.359Z,3.87
2017-12-13T13:52:54.703Z,2.70
2017-12-13T13:55:23.021Z,3.57
2017-12-13T13:57:51.328Z,8.10
2017-12-13T14:00:19.657Z,8.27
2017-12-13T14:02:48.751Z,12.87
2017-12-13T14:05:17.844Z,2.83
2017-12-13T14:07:47.751Z,3.83
2017-12-13T14:10:16.864Z,10.30
2017-12-13T14:12:45.196Z,4.10
2017-12-13T14:15:13.521Z,3.63
2017-12-13T14:17:41.829Z,3.30
2017-12-13T14:20:10.200Z,4.23
2017-12-13T14:22:38.528Z,5.27
2017-12-13T14:25:06.848Z,3.63
2017-12-13T14:27:35.189Z,2.23
2017-12-13T14:30:04.268Z,2.20
2017-12-13T14:32:32.586Z,2.20
2017-12-13T14:35:00.941Z,4.57
2017-12-13T14:37:30.016Z,5.77
2017-12-13T14:39:58.340Z,3.97
2017-12-13T14:42:26.704Z,5.40
2017-12-13T14:44:55.819Z,2.50
2017-12-13T14:47:24.143Z,8.40
2017-12-13T14:49:52.481Z,2.03
2017-12-13T14:52:20.800Z,2.10
2017-12-13T14:54:49.138Z,2.60
2017-12-13T14:57:17.475Z,3.47
2017-12-13T14:59:46.568Z,9.73
2017-12-13T15:02:14.894Z,10.83
2017-12-13T15:04:43.247Z,2.97
2017-12-13T15:07:11.578Z,4.13
2017-12-13T15:09:39.896Z,9.77
2017-12-13T15:12:08.253Z,6.50
2017-12-13T15:14:37.350Z,7.23
2017-12-13T15:17:06.472Z,4.40
2017-12-13T15:19:34.868Z,4.07
2017-12-13T15:22:03.271Z,5.27
2017-12-13T15:24:31.774Z,7.03
2017-12-13T15:27:00.143Z,4.60
2017-12-13T15:29:28.481Z,2.63
2017-12-13T15:31:56.824Z,2.23
2017-12-13T15:34:25.971Z,8.83
2017-12-13T15:36:54.369Z,2.40
2017-12-13T15:39:22.711Z,4.43
2017-12-13T15:41:51.136Z,6.27
2017-12-13T15:44:19.525Z,6.83
2017-12-13T15:46:47.897Z,3.67
2017-12-13T15:49:16.262Z,5.17
2017-12-13T15:51:44.750Z,4.90
2017-12-13T15:54:13.083Z,3.37
2017-12-13T15:56:41.446Z,7.93
2017-12-13T15:59:09.782Z,2.43
2017-12-13T16:01:38.145Z,3.17
2017-12-13T16:04:06.511Z,5.77
2017-12-13T16:06:34.852Z,3.40
2017-12-13T16:09:03.241Z,3.00
2017-12-13T16:11:31.591Z,6.17
2017-12-13T16:14:00.004Z,3.13
2017-12-13T16:16:28.377Z,4.90
2017-12-13T16:18:56.704Z,4.10
2017-12-13T16:21:25.036Z,2.40
2017-12-13T16:23:53.456Z,7.77
2017-12-13T16:26:21.808Z,5.53
2017-12-13T16:28:50.188Z,5.60
2017-12-13T16:31:18.597Z,9.87
2017-12-13T16:33:46.976Z,9.40
2017-12-13T16:36:15.338Z,8.10
2017-12-13T16:38:43.701Z,4.83
2017-12-13T16:41:12.188Z,8.60
2017-12-13T16:43:40.561Z,5.97
2017-12-13T16:46:08.932Z,3.53
2017-12-13T16:48:37.307Z,4.70
2017-12-13T16:51:05.680Z,4.50
2017-12-13T16:53:34.820Z,3.07
2017-12-13T16:56:03.151Z,4.53
2017-12-13T16:58:31.655Z,4.80
2017-12-13T17:01:00.024Z,5.80
2017-12-13T17:03:28.365Z,4.20
2017-12-13T17:05:56.791Z,3.53
2017-12-13T17:08:25.152Z,4.30
2017-12-13T17:10:53.488Z,3.33
2017-12-13T17:13:21.815Z,5.03
2017-12-13T17:15:50.191Z,10.93
2017-12-13T17:18:18.521Z,4.90
2017-12-13T17:20:46.869Z,3.97
2017-12-13T17:23:15.223Z,3.40
2017-12-13T17:25:43.588Z,5.63
2017-12-13T17:28:12.705Z,5.77
2017-12-13T17:30:41.040Z,5.60
2017-12-13T17:33:10.264Z,4.37
2017-12-13T17:35:39.432Z,8.87
2017-12-13T17:38:07.751Z,3.67
2017-12-13T17:40:36.117Z,5.03
2017-12-13T17:43:05.216Z,5.93
2017-12-13T17:45:33.548Z,7.63
2017-12-13T17:48:01.876Z,5.57
2017-12-13T17:50:30.248Z,9.70
2017-12-13T17:52:59.359Z,9.17
2017-12-13T17:55:27.724Z,5.03
2017-12-13T17:57:56.840Z,4.43
2017-12-13T18:00:26.912Z,5.43
2017-12-13T18:02:55.240Z,5.83
2017-12-13T18:05:23.736Z,4.00
2017-12-13T18:07:52.071Z,7.37
2017-12-13T18:10:21.171Z,8.10
2017-12-13T18:12:50.269Z,5.80
2017-12-13T18:15:18.620Z,7.47
2017-12-13T18:17:47.736Z,7.60
2017-12-13T18:20:16.816Z,8.93
2017-12-13T18:22:45.156Z,4.27
2017-12-13T18:25:13.556Z,5.10
2017-12-13T18:27:41.899Z,7.70
2017-12-13T18:30:10.313Z,4.73
2017-12-13T18:32:39.454Z,5.90
2017-12-13T18:35:07.807Z,6.23
2017-12-13T18:37:36.133Z,4.50
2017-12-13T18:40:05.861Z,4.00
2017-12-13T18:42:34.288Z,3.77
2017-12-13T18:45:03.417Z,3.70
2017-12-13T18:47:31.799Z,4.23
2017-12-13T18:50:00.165Z,3.50
2017-12-13T18:52:28.516Z,3.60
2017-12-13T18:54:57.634Z,3.53
2017-12-13T18:57:26.013Z,8.80
2017-12-13T18:59:54.406Z,3.50
2017-12-13T19:02:22.856Z,3.40
2017-12-13T19:04:52.026Z,2.80
2017-12-13T19:07:20.377Z,3.50
2017-12-13T19:09:49.097Z,3.30
2017-12-13T19:12:18.240Z,3.00
2017-12-13T19:14:46.572Z,2.70
2017-12-13T19:17:14.988Z,2.80
2017-12-13T19:19:43.343Z,2.97
2017-12-13T19:22:12.490Z,1.97
2017-12-13T19:24:40.827Z,2.30
2017-12-13T19:27:09.965Z,1.73
2017-12-13T19:29:38.337Z,2.90
2017-12-13T19:32:06.662Z,1.70
2017-12-13T19:34:35.037Z,1.90
2017-12-13T19:37:04.119Z,1.70
2017-12-13T19:39:32.480Z,1.40
2017-12-13T19:42:00.846Z,1.80
2017-12-13T19:44:29.190Z,1.53
2017-12-13T19:46:57.524Z,1.60
2017-12-13T19:49:25.915Z,1.53
2017-12-13T19:51:54.241Z,1.20
2017-12-13T19:54:22.585Z,1.77
2017-12-13T19:56:51.698Z,1.30
2017-12-13T19:59:20.045Z,1.20
2017-12-13T20:01:48.396Z,1.20
2017-12-13T20:04:16.810Z,1.10
2017-12-13T20:06:45.142Z,1.10
2017-12-13T20:09:13.467Z,1.30
2017-12-13T20:11:41.812Z,1.43
2017-12-13T20:14:10.146Z,1.23
2017-12-13T20:16:38.485Z,1.10
2017-12-13T20:19:06.833Z,0.80
2017-12-13T20:21:35.188Z,1.10
2017-12-13T20:24:03.622Z,0.90
2017-12-13T20:26:31.935Z,1.30
2017-12-13T20:29:01.019Z,1.40
2017-12-13T20:31:30.196Z,1.23
2017-12-13T20:33:58.536Z,1.20
2017-12-13T20:36:26.884Z,1.40
2017-12-13T20:38:55.244Z,1.00
2017-12-13T20:41:23.584Z,1.00
2017-12-13T20:43:51.894Z,1.27
2017-12-13T20:46:20.248Z,1.27
2017-12-13T20:48:48.571Z,0.90
2017-12-13T20:51:17.690Z,0.90
2017-12-13T20:53:46.039Z,1.33
2017-12-13T20:56:15.147Z,0.80
2017-12-13T20:58:43.624Z,0.97
2017-12-13T21:01:11.980Z,1.20
2017-12-13T21:03:40.323Z,1.23
2017-12-13T21:06:08.657Z,1.50
2017-12-13T21:08:37.772Z,1.10
2017-12-13T21:11:06.115Z,1.10
2017-12-13T21:13:35.228Z,1.10
2017-12-13T21:16:04.381Z,0.90
2017-12-13T21:18:32.725Z,0.80
2017-12-13T21:21:01.140Z,1.00
2017-12-13T21:23:29.479Z,1.27
2017-12-13T21:25:57.793Z,1.37
2017-12-13T21:28:26.132Z,1.20
2017-12-13T21:30:54.465Z,1.20
2017-12-13T21:33:22.779Z,1.13
2017-12-13T21:35:51.143Z,1.50
2017-12-13T21:38:20.243Z,1.10
2017-12-13T21:40:49.355Z,1.40
2017-12-13T21:43:17.688Z,1.50
2017-12-13T21:45:46.041Z,1.30
2017-12-13T21:48:14.371Z,1.60
2017-12-13T21:50:43.480Z,1.87
2017-12-13T21:53:11.815Z,1.07
2017-12-13T21:55:40.152Z,1.33
2017-12-13T21:58:08.467Z,1.60
2017-12-13T22:00:36.792Z,2.10
2017-12-13T22:03:05.164Z,2.23
2017-12-13T22:05:33.483Z,2.13
2017-12-13T22:08:01.797Z,2.20
2017-12-13T22:10:30.135Z,2.40
2017-12-13T22:12:58.448Z,2.37
2017-12-13T22:15:26.781Z,2.60
2017-12-13T22:17:55.220Z,3.03
2017-12-13T22:20:24.311Z,2.63
2017-12-13T22:22:53.428Z,2.70
2017-12-13T22:25:21.802Z,2.53
2017-12-13T22:27:50.118Z,2.53
2017-12-13T22:30:18.466Z,3.33
2017-12-13T22:32:46.805Z,2.30
2017-12-13T22:35:15.124Z,1.67
2017-12-13T22:37:43.440Z,2.20
2017-12-13T22:40:11.786Z,2.40
2017-12-13T22:42:40.088Z,1.73
2017-12-13T22:45:08.421Z,2.23
2017-12-13T22:47:37.532Z,2.30
2017-12-13T22:50:05.860Z,2.20
2017-12-13T22:52:34.176Z,2.23
2017-12-13T22:55:02.528Z,1.87
2017-12-13T22:57:30.852Z,1.90
2017-12-13T22:59:59.170Z,2.00
2017-12-13T23:02:27.516Z,1.33
2017-12-13T23:04:55.858Z,1.70
2017-12-13T23:07:24.976Z,1.53
2017-12-13T23:09:53.335Z,1.47
2017-12-13T23:12:21.653Z,1.70
2017-12-13T23:14:50.001Z,1.10
2017-12-13T23:17:18.338Z,1.43
2017-12-13T23:19:46.682Z,1.10
2017-12-13T23:22:15.014Z,1.13
2017-12-13T23:24:43.370Z,1.10
2017-12-13T23:27:11.709Z,1.03
2017-12-13T23:29:40.042Z,0.90
2017-12-13T23:32:09.160Z,1.10
2017-12-13T23:34:37.500Z,0.80
2017-12-13T23:37:05.819Z,0.97
2017-12-13T23:39:34.188Z,1.30
2017-12-13T23:42:02.535Z,1.60
2017-12-13T23:44:30.879Z,1.43
2017-12-13T23:46:59.268Z,2.10
2017-12-13T23:49:27.700Z,1.50
2017-12-13T23:51:56.815Z,1.00
2017-12-13T23:54:25.273Z,1.47
2017-12-13T23:56:54.360Z,1.60
2017-12-13T23:59:23.506Z,1.47
